sensor_id;sensor_type;location;lat;lon;timestamp;P1;durP1;ratioP1;P2;durP2;ratioP2
2854;SDS011;1435;49.472;10.940;2024-01-06T00:01:27;8.53;;;6.10;;
2854;SDS011;1435;49.472;10.940;2024-01-06T00:06:30;8.23;;;6.77;;
2854;SDS011;1435;49.472;10.940;2024-01-06T00:11:32;6.33;;;5.63;;
2854;SDS011;1435;49.472;10.940;2024-01-06T00:16:34;6.27;;;5.63;;
2854;SDS011;1435;49.472;10.940;2024-01-06T00:21:37;6.40;;;5.20;;
2854;SDS011;1435;49.472;10.940;2024-01-06T00:26:38;6.80;;;5.43;;
2854;SDS011;1435;49.472;10.940;2024-01-06T00:31:40;7.50;;;5.53;;
2854;SDS011;1435;49.472;10.940;2024-01-06T00:36:43;11.43;;;5.60;;
2854;SDS011;1435;49.472;10.940;2024-01-06T00:41:44;6.17;;;5.60;;
2854;SDS011;1435;49.472;10.940;2024-01-06T00:46:46;5.40;;;4.90;;
2854;SDS011;1435;49.472;10.940;2024-01-06T00:51:49;6.57;;;5.67;;
2854;SDS011;1435;49.472;10.940;2024-01-06T00:56:51;8.73;;;5.60;;
2854;SDS011;1435;49.472;10.940;2024-01-06T01:01:52;7.20;;;5.30;;
2854;SDS011;1435;49.472;10.940;2024-01-06T01:06:55;7.20;;;6.00;;
2854;SDS011;1435;49.472;10.940;2024-01-06T01:11:57;6.13;;;5.53;;
2854;SDS011;1435;49.472;10.940;2024-01-06T01:16:59;6.73;;;6.10;;
2854;SDS011;1435;49.472;10.940;2024-01-06T01:22:02;6.77;;;5.67;;
2854;SDS011;1435;49.472;10.940;2024-01-06T01:27:04;8.13;;;6.63;;
2854;SDS011;1435;49.472;10.940;2024-01-06T01:32:05;7.50;;;5.93;;
2854;SDS011;1435;49.472;10.940;2024-01-06T01:37:09;9.00;;;5.63;;
2854;SDS011;1435;49.472;10.940;2024-01-06T01:42:10;5.90;;;5.37;;
2854;SDS011;1435;49.472;10.940;2024-01-06T01:47:12;7.47;;;5.87;;
2854;SDS011;1435;49.472;10.940;2024-01-06T01:52:19;6.37;;;5.20;;
2854;SDS011;1435;49.472;10.940;2024-01-06T01:57:21;6.33;;;5.47;;
2854;SDS011;1435;49.472;10.940;2024-01-06T02:02:26;6.07;;;5.07;;
2854;SDS011;1435;49.472;10.940;2024-01-06T02:07:29;5.03;;;4.50;;
2854;SDS011;1435;49.472;10.940;2024-01-06T02:12:31;5.47;;;4.73;;
2854;SDS011;1435;49.472;10.940;2024-01-06T02:17:33;6.30;;;4.43;;
2854;SDS011;1435;49.472;10.940;2024-01-06T02:22:36;6.70;;;5.63;;
2854;SDS011;1435;49.472;10.940;2024-01-06T02:27:38;5.50;;;4.60;;
2854;SDS011;1435;49.472;10.940;2024-01-06T02:32:40;8.50;;;4.70;;
2854;SDS011;1435;49.472;10.940;2024-01-06T02:37:42;5.67;;;4.67;;
2854;SDS011;1435;49.472;10.940;2024-01-06T02:42:44;8.10;;;4.80;;
2854;SDS011;1435;49.472;10.940;2024-01-06T02:47:46;6.73;;;4.40;;
2854;SDS011;1435;49.472;10.940;2024-01-06T02:52:49;5.47;;;4.60;;
2854;SDS011;1435;49.472;10.940;2024-01-06T02:57:50;5.13;;;4.70;;
2854;SDS011;1435;49.472;10.940;2024-01-06T03:02:52;5.30;;;3.67;;
2854;SDS011;1435;49.472;10.940;2024-01-06T03:07:55;4.40;;;4.10;;
2854;SDS011;1435;49.472;10.940;2024-01-06T03:12:57;5.00;;;4.47;;
2854;SDS011;1435;49.472;10.940;2024-01-06T03:17:58;4.43;;;3.97;;
2854;SDS011;1435;49.472;10.940;2024-01-06T03:23:01;5.33;;;4.60;;
2854;SDS011;1435;49.472;10.940;2024-01-06T03:28:03;7.17;;;4.63;;
2854;SDS011;1435;49.472;10.940;2024-01-06T03:33:05;4.33;;;4.00;;
2854;SDS011;1435;49.472;10.940;2024-01-06T03:38:08;9.47;;;4.43;;
2854;SDS011;1435;49.472;10.940;2024-01-06T03:43:10;4.90;;;4.50;;
2854;SDS011;1435;49.472;10.940;2024-01-06T03:48:12;6.33;;;4.00;;
2854;SDS011;1435;49.472;10.940;2024-01-06T03:53:15;4.97;;;4.40;;
2854;SDS011;1435;49.472;10.940;2024-01-06T03:58:16;4.93;;;4.43;;
2854;SDS011;1435;49.472;10.940;2024-01-06T04:03:18;7.20;;;3.83;;
2854;SDS011;1435;49.472;10.940;2024-01-06T04:08:21;4.83;;;4.27;;
2854;SDS011;1435;49.472;10.940;2024-01-06T04:13:22;5.87;;;4.10;;
2854;SDS011;1435;49.472;10.940;2024-01-06T04:18:24;4.70;;;4.23;;
2854;SDS011;1435;49.472;10.940;2024-01-06T04:23:27;7.80;;;4.33;;
2854;SDS011;1435;49.472;10.940;2024-01-06T04:28:29;4.40;;;3.43;;
2854;SDS011;1435;49.472;10.940;2024-01-06T04:33:31;6.13;;;4.20;;
2854;SDS011;1435;49.472;10.940;2024-01-06T04:38:34;4.70;;;3.70;;
2854;SDS011;1435;49.472;10.940;2024-01-06T04:43:36;6.43;;;4.47;;
2854;SDS011;1435;49.472;10.940;2024-01-06T04:48:37;4.70;;;4.23;;
2854;SDS011;1435;49.472;10.940;2024-01-06T04:53:44;8.60;;;4.60;;
2854;SDS011;1435;49.472;10.940;2024-01-06T04:58:46;5.57;;;4.70;;
2854;SDS011;1435;49.472;10.940;2024-01-06T05:03:48;4.13;;;3.73;;
2854;SDS011;1435;49.472;10.940;2024-01-06T05:08:51;4.73;;;3.80;;
2854;SDS011;1435;49.472;10.940;2024-01-06T05:13:52;4.67;;;3.30;;
2854;SDS011;1435;49.472;10.940;2024-01-06T05:18:54;4.00;;;3.70;;
2854;SDS011;1435;49.472;10.940;2024-01-06T05:23:57;4.00;;;3.70;;
2854;SDS011;1435;49.472;10.940;2024-01-06T05:28:58;4.30;;;4.00;;
2854;SDS011;1435;49.472;10.940;2024-01-06T05:34:00;4.27;;;3.87;;
2854;SDS011;1435;49.472;10.940;2024-01-06T05:39:03;3.77;;;3.33;;
2854;SDS011;1435;49.472;10.940;2024-01-06T05:44:05;4.67;;;4.07;;
2854;SDS011;1435;49.472;10.940;2024-01-06T05:49:07;5.43;;;3.53;;
2854;SDS011;1435;49.472;10.940;2024-01-06T05:54:11;3.83;;;3.53;;
2854;SDS011;1435;49.472;10.940;2024-01-06T05:59:13;4.07;;;3.63;;
2854;SDS011;1435;49.472;10.940;2024-01-06T06:04:15;4.40;;;4.10;;
2854;SDS011;1435;49.472;10.940;2024-01-06T06:09:18;4.40;;;3.77;;
2854;SDS011;1435;49.472;10.940;2024-01-06T06:14:21;4.53;;;4.13;;
2854;SDS011;1435;49.472;10.940;2024-01-06T06:19:23;3.60;;;3.30;;
2854;SDS011;1435;49.472;10.940;2024-01-06T06:24:26;4.97;;;4.07;;
2854;SDS011;1435;49.472;10.940;2024-01-06T06:29:28;3.60;;;3.30;;
2854;SDS011;1435;49.472;10.940;2024-01-06T06:34:29;5.00;;;3.73;;
2854;SDS011;1435;49.472;10.940;2024-01-06T06:39:32;4.17;;;3.87;;
2854;SDS011;1435;49.472;10.940;2024-01-06T06:44:35;5.33;;;3.90;;
2854;SDS011;1435;49.472;10.940;2024-01-06T06:49:37;4.10;;;3.80;;
2854;SDS011;1435;49.472;10.940;2024-01-06T06:54:39;6.57;;;3.57;;
2854;SDS011;1435;49.472;10.940;2024-01-06T06:59:41;5.83;;;3.77;;
2854;SDS011;1435;49.472;10.940;2024-01-06T07:04:43;4.20;;;3.90;;
2854;SDS011;1435;49.472;10.940;2024-01-06T07:09:46;4.73;;;4.00;;
2854;SDS011;1435;49.472;10.940;2024-01-06T07:14:48;5.20;;;3.93;;
2854;SDS011;1435;49.472;10.940;2024-01-06T07:19:49;4.47;;;3.77;;
2854;SDS011;1435;49.472;10.940;2024-01-06T07:24:52;4.00;;;3.60;;
2854;SDS011;1435;49.472;10.940;2024-01-06T07:29:54;4.87;;;4.40;;
2854;SDS011;1435;49.472;10.940;2024-01-06T07:34:56;6.20;;;4.70;;
2854;SDS011;1435;49.472;10.940;2024-01-06T07:39:59;4.00;;;3.70;;
2854;SDS011;1435;49.472;10.940;2024-01-06T07:45:00;5.77;;;4.10;;
2854;SDS011;1435;49.472;10.940;2024-01-06T07:50:02;3.43;;;3.23;;
2854;SDS011;1435;49.472;10.940;2024-01-06T07:55:07;4.33;;;3.50;;
2854;SDS011;1435;49.472;10.940;2024-01-06T08:00:10;3.73;;;3.40;;
2854;SDS011;1435;49.472;10.940;2024-01-06T08:05:14;5.77;;;4.50;;
2854;SDS011;1435;49.472;10.940;2024-01-06T08:10:17;6.77;;;5.00;;
2854;SDS011;1435;49.472;10.940;2024-01-06T08:15:20;7.83;;;5.57;;
2854;SDS011;1435;49.472;10.940;2024-01-06T08:20:22;10.40;;;5.63;;
2854;SDS011;1435;49.472;10.940;2024-01-06T08:25:25;7.10;;;6.20;;
2854;SDS011;1435;49.472;10.940;2024-01-06T08:30:27;7.60;;;5.67;;
2854;SDS011;1435;49.472;10.940;2024-01-06T08:35:29;7.90;;;5.57;;
2854;SDS011;1435;49.472;10.940;2024-01-06T08:40:33;9.20;;;6.70;;
2854;SDS011;1435;49.472;10.940;2024-01-06T08:45:34;8.00;;;6.27;;
2854;SDS011;1435;49.472;10.940;2024-01-06T08:50:36;7.43;;;6.33;;
2854;SDS011;1435;49.472;10.940;2024-01-06T08:55:39;13.43;;;6.30;;
2854;SDS011;1435;49.472;10.940;2024-01-06T09:00:40;8.57;;;6.70;;
2854;SDS011;1435;49.472;10.940;2024-01-06T09:05:42;13.03;;;9.47;;
2854;SDS011;1435;49.472;10.940;2024-01-06T09:10:45;10.30;;;8.37;;
2854;SDS011;1435;49.472;10.940;2024-01-06T09:15:47;8.00;;;7.23;;
2854;SDS011;1435;49.472;10.940;2024-01-06T09:20:49;9.57;;;7.20;;
2854;SDS011;1435;49.472;10.940;2024-01-06T09:25:52;7.97;;;6.77;;
2854;SDS011;1435;49.472;10.940;2024-01-06T09:30:53;9.93;;;6.17;;
2854;SDS011;1435;49.472;10.940;2024-01-06T09:35:55;8.83;;;6.63;;
2854;SDS011;1435;49.472;10.940;2024-01-06T09:40:58;8.00;;;6.30;;
2854;SDS011;1435;49.472;10.940;2024-01-06T09:46:02;7.33;;;6.40;;
2854;SDS011;1435;49.472;10.940;2024-01-06T09:51:09;6.10;;;5.10;;
2854;SDS011;1435;49.472;10.940;2024-01-06T09:56:13;4.67;;;4.27;;
2854;SDS011;1435;49.472;10.940;2024-01-06T10:01:17;7.70;;;4.90;;
2854;SDS011;1435;49.472;10.940;2024-01-06T10:06:19;5.40;;;4.17;;
2854;SDS011;1435;49.472;10.940;2024-01-06T10:11:23;6.43;;;5.10;;
2854;SDS011;1435;49.472;10.940;2024-01-06T10:16:24;8.07;;;5.20;;
2854;SDS011;1435;49.472;10.940;2024-01-06T10:21:26;4.93;;;4.43;;
2854;SDS011;1435;49.472;10.940;2024-01-06T10:26:29;6.23;;;5.60;;
2854;SDS011;1435;49.472;10.940;2024-01-06T10:31:31;6.33;;;4.47;;
2854;SDS011;1435;49.472;10.940;2024-01-06T10:36:34;7.83;;;5.80;;
2854;SDS011;1435;49.472;10.940;2024-01-06T10:41:38;8.43;;;7.40;;
2854;SDS011;1435;49.472;10.940;2024-01-06T10:46:43;7.43;;;6.67;;
2854;SDS011;1435;49.472;10.940;2024-01-06T10:51:45;7.80;;;7.00;;
2854;SDS011;1435;49.472;10.940;2024-01-06T10:56:49;8.77;;;7.40;;
2854;SDS011;1435;49.472;10.940;2024-01-06T11:01:53;10.63;;;8.07;;
2854;SDS011;1435;49.472;10.940;2024-01-06T11:06:56;8.03;;;6.77;;
2854;SDS011;1435;49.472;10.940;2024-01-06T11:11:59;5.90;;;5.40;;
2854;SDS011;1435;49.472;10.940;2024-01-06T11:17:01;6.00;;;5.40;;
2854;SDS011;1435;49.472;10.940;2024-01-06T11:22:17;8.80;;;6.60;;
2854;SDS011;1435;49.472;10.940;2024-01-06T11:27:26;9.07;;;7.27;;
2854;SDS011;1435;49.472;10.940;2024-01-06T11:32:29;8.20;;;6.83;;
2854;SDS011;1435;49.472;10.940;2024-01-06T11:37:36;7.73;;;6.43;;
2854;SDS011;1435;49.472;10.940;2024-01-06T11:42:40;5.60;;;5.10;;
2854;SDS011;1435;49.472;10.940;2024-01-06T11:47:44;5.47;;;4.50;;
2854;SDS011;1435;49.472;10.940;2024-01-06T11:52:49;7.27;;;5.87;;
2854;SDS011;1435;49.472;10.940;2024-01-06T11:57:53;6.53;;;4.80;;
2854;SDS011;1435;49.472;10.940;2024-01-06T12:02:56;5.70;;;5.00;;
2854;SDS011;1435;49.472;10.940;2024-01-06T12:07:59;4.60;;;4.20;;
2854;SDS011;1435;49.472;10.940;2024-01-06T12:13:03;6.47;;;4.37;;
2854;SDS011;1435;49.472;10.940;2024-01-06T12:18:08;5.23;;;3.73;;
2854;SDS011;1435;49.472;10.940;2024-01-06T12:23:10;4.30;;;3.73;;
2854;SDS011;1435;49.472;10.940;2024-01-06T12:28:13;4.33;;;3.83;;
2854;SDS011;1435;49.472;10.940;2024-01-06T12:33:16;5.60;;;4.77;;
2854;SDS011;1435;49.472;10.940;2024-01-06T12:38:19;6.27;;;3.93;;
2854;SDS011;1435;49.472;10.940;2024-01-06T12:43:22;4.73;;;4.33;;
2854;SDS011;1435;49.472;10.940;2024-01-06T12:48:24;4.90;;;4.40;;
2854;SDS011;1435;49.472;10.940;2024-01-06T12:53:26;5.67;;;4.43;;
2854;SDS011;1435;49.472;10.940;2024-01-06T12:58:29;5.83;;;4.50;;
2854;SDS011;1435;49.472;10.940;2024-01-06T13:03:30;5.80;;;4.20;;
2854;SDS011;1435;49.472;10.940;2024-01-06T13:08:32;5.77;;;3.93;;
2854;SDS011;1435;49.472;10.940;2024-01-06T13:13:35;6.90;;;4.27;;
2854;SDS011;1435;49.472;10.940;2024-01-06T13:18:37;4.00;;;3.60;;
2854;SDS011;1435;49.472;10.940;2024-01-06T13:23:39;6.77;;;5.27;;
2854;SDS011;1435;49.472;10.940;2024-01-06T13:28:42;5.87;;;4.50;;
2854;SDS011;1435;49.472;10.940;2024-01-06T13:33:44;5.73;;;4.47;;
2854;SDS011;1435;49.472;10.940;2024-01-06T13:38:46;5.27;;;4.20;;
2854;SDS011;1435;49.472;10.940;2024-01-06T13:43:49;4.67;;;4.27;;
2854;SDS011;1435;49.472;10.940;2024-01-06T13:48:51;6.77;;;4.20;;
2854;SDS011;1435;49.472;10.940;2024-01-06T13:53:53;5.43;;;3.90;;
2854;SDS011;1435;49.472;10.940;2024-01-06T13:58:56;5.43;;;4.90;;
2854;SDS011;1435;49.472;10.940;2024-01-06T14:03:57;5.90;;;4.73;;
2854;SDS011;1435;49.472;10.940;2024-01-06T14:08:59;5.30;;;4.80;;
2854;SDS011;1435;49.472;10.940;2024-01-06T14:14:02;6.00;;;5.33;;
2854;SDS011;1435;49.472;10.940;2024-01-06T14:19:05;9.13;;;6.50;;
2854;SDS011;1435;49.472;10.940;2024-01-06T14:24:06;9.73;;;7.90;;
2854;SDS011;1435;49.472;10.940;2024-01-06T14:29:09;8.70;;;7.13;;
2854;SDS011;1435;49.472;10.940;2024-01-06T14:34:12;8.03;;;7.30;;
2854;SDS011;1435;49.472;10.940;2024-01-06T14:39:14;8.63;;;6.37;;
2854;SDS011;1435;49.472;10.940;2024-01-06T14:44:17;8.67;;;6.60;;
2854;SDS011;1435;49.472;10.940;2024-01-06T14:49:19;6.90;;;6.30;;
2854;SDS011;1435;49.472;10.940;2024-01-06T14:54:21;6.90;;;6.20;;
2854;SDS011;1435;49.472;10.940;2024-01-06T14:59:24;7.60;;;6.87;;
2854;SDS011;1435;49.472;10.940;2024-01-06T15:04:26;8.50;;;7.03;;
2854;SDS011;1435;49.472;10.940;2024-01-06T15:09:27;6.87;;;6.17;;
2854;SDS011;1435;49.472;10.940;2024-01-06T15:14:30;9.20;;;6.73;;
2854;SDS011;1435;49.472;10.940;2024-01-06T15:19:32;7.43;;;6.33;;
2854;SDS011;1435;49.472;10.940;2024-01-06T15:24:33;7.57;;;6.50;;
2854;SDS011;1435;49.472;10.940;2024-01-06T15:29:36;6.57;;;5.97;;
2854;SDS011;1435;49.472;10.940;2024-01-06T15:34:38;5.90;;;5.20;;
2854;SDS011;1435;49.472;10.940;2024-01-06T15:39:40;6.47;;;5.70;;
2854;SDS011;1435;49.472;10.940;2024-01-06T15:44:43;5.37;;;4.83;;
2854;SDS011;1435;49.472;10.940;2024-01-06T15:49:44;6.10;;;5.50;;
2854;SDS011;1435;49.472;10.940;2024-01-06T15:54:46;7.10;;;5.10;;
2854;SDS011;1435;49.472;10.940;2024-01-06T15:59:50;6.20;;;5.00;;
2854;SDS011;1435;49.472;10.940;2024-01-06T16:04:53;7.50;;;4.70;;
2854;SDS011;1435;49.472;10.940;2024-01-06T16:09:54;7.63;;;5.00;;
2854;SDS011;1435;49.472;10.940;2024-01-06T16:14:57;5.47;;;4.90;;
2854;SDS011;1435;49.472;10.940;2024-01-06T16:19:59;5.13;;;4.73;;
2854;SDS011;1435;49.472;10.940;2024-01-06T16:25:01;5.70;;;5.13;;
2854;SDS011;1435;49.472;10.940;2024-01-06T16:30:04;6.03;;;4.90;;
2854;SDS011;1435;49.472;10.940;2024-01-06T16:35:08;4.83;;;4.40;;
2854;SDS011;1435;49.472;10.940;2024-01-06T16:40:09;6.53;;;4.83;;
2854;SDS011;1435;49.472;10.940;2024-01-06T16:45:13;5.90;;;5.30;;
2854;SDS011;1435;49.472;10.940;2024-01-06T16:50:15;7.33;;;5.47;;
2854;SDS011;1435;49.472;10.940;2024-01-06T16:55:17;7.80;;;4.97;;
2854;SDS011;1435;49.472;10.940;2024-01-06T17:00:20;5.43;;;4.07;;
2854;SDS011;1435;49.472;10.940;2024-01-06T17:05:22;6.87;;;5.40;;
2854;SDS011;1435;49.472;10.940;2024-01-06T17:10:24;8.27;;;5.57;;
2854;SDS011;1435;49.472;10.940;2024-01-06T17:15:27;10.70;;;5.00;;
2854;SDS011;1435;49.472;10.940;2024-01-06T17:20:29;5.23;;;4.60;;
2854;SDS011;1435;49.472;10.940;2024-01-06T17:25:30;7.47;;;5.47;;
2854;SDS011;1435;49.472;10.940;2024-01-06T17:30:35;7.37;;;5.13;;
2854;SDS011;1435;49.472;10.940;2024-01-06T17:35:37;9.67;;;7.20;;
2854;SDS011;1435;49.472;10.940;2024-01-06T17:40:39;10.53;;;7.80;;
2854;SDS011;1435;49.472;10.940;2024-01-06T17:45:42;8.30;;;7.00;;
2854;SDS011;1435;49.472;10.940;2024-01-06T17:50:44;7.00;;;6.20;;
2854;SDS011;1435;49.472;10.940;2024-01-06T17:55:46;6.87;;;6.20;;
2854;SDS011;1435;49.472;10.940;2024-01-06T18:00:49;12.30;;;6.13;;
2854;SDS011;1435;49.472;10.940;2024-01-06T18:05:50;11.13;;;5.80;;
2854;SDS011;1435;49.472;10.940;2024-01-06T18:10:52;7.97;;;6.30;;
2854;SDS011;1435;49.472;10.940;2024-01-06T18:15:55;8.57;;;7.60;;
2854;SDS011;1435;49.472;10.940;2024-01-06T18:20:57;10.50;;;7.77;;
2854;SDS011;1435;49.472;10.940;2024-01-06T18:25:58;10.90;;;7.90;;
2854;SDS011;1435;49.472;10.940;2024-01-06T18:31:01;9.97;;;7.33;;
2854;SDS011;1435;49.472;10.940;2024-01-06T18:36:03;7.40;;;6.20;;
2854;SDS011;1435;49.472;10.940;2024-01-06T18:41:05;9.27;;;7.87;;
2854;SDS011;1435;49.472;10.940;2024-01-06T18:46:08;9.73;;;7.10;;
2854;SDS011;1435;49.472;10.940;2024-01-06T18:51:11;9.10;;;8.17;;
2854;SDS011;1435;49.472;10.940;2024-01-06T18:56:13;13.00;;;8.70;;
2854;SDS011;1435;49.472;10.940;2024-01-06T19:01:16;18.00;;;10.60;;
2854;SDS011;1435;49.472;10.940;2024-01-06T19:06:18;15.03;;;10.40;;
2854;SDS011;1435;49.472;10.940;2024-01-06T19:11:19;13.77;;;9.93;;
2854;SDS011;1435;49.472;10.940;2024-01-06T19:16:22;10.87;;;8.87;;
2854;SDS011;1435;49.472;10.940;2024-01-06T19:21:24;11.53;;;9.13;;
2854;SDS011;1435;49.472;10.940;2024-01-06T19:26:26;11.20;;;9.10;;
2854;SDS011;1435;49.472;10.940;2024-01-06T19:31:29;17.70;;;12.70;;
2854;SDS011;1435;49.472;10.940;2024-01-06T19:36:30;11.50;;;9.20;;
2854;SDS011;1435;49.472;10.940;2024-01-06T19:41:32;10.07;;;9.10;;
2854;SDS011;1435;49.472;10.940;2024-01-06T19:46:35;9.50;;;8.60;;
2854;SDS011;1435;49.472;10.940;2024-01-06T19:51:39;10.03;;;7.93;;
2854;SDS011;1435;49.472;10.940;2024-01-06T19:56:41;8.53;;;7.73;;
2854;SDS011;1435;49.472;10.940;2024-01-06T20:01:44;8.07;;;7.23;;
2854;SDS011;1435;49.472;10.940;2024-01-06T20:06:46;9.03;;;7.63;;
2854;SDS011;1435;49.472;10.940;2024-01-06T20:11:47;10.60;;;8.57;;
2854;SDS011;1435;49.472;10.940;2024-01-06T20:16:50;11.00;;;9.80;;
2854;SDS011;1435;49.472;10.940;2024-01-06T20:21:55;11.43;;;9.70;;
2854;SDS011;1435;49.472;10.940;2024-01-06T20:26:57;12.80;;;11.00;;
2854;SDS011;1435;49.472;10.940;2024-01-06T20:32:00;14.50;;;9.60;;
2854;SDS011;1435;49.472;10.940;2024-01-06T20:37:01;13.23;;;10.07;;
2854;SDS011;1435;49.472;10.940;2024-01-06T20:42:03;10.10;;;8.80;;
2854;SDS011;1435;49.472;10.940;2024-01-06T20:47:07;13.23;;;8.37;;
2854;SDS011;1435;49.472;10.940;2024-01-06T20:52:09;11.50;;;8.83;;
2854;SDS011;1435;49.472;10.940;2024-01-06T20:57:10;8.90;;;8.00;;
2854;SDS011;1435;49.472;10.940;2024-01-06T21:02:13;11.90;;;8.67;;
2854;SDS011;1435;49.472;10.940;2024-01-06T21:07:17;8.93;;;8.00;;
2854;SDS011;1435;49.472;10.940;2024-01-06T21:12:19;9.97;;;8.80;;
2854;SDS011;1435;49.472;10.940;2024-01-06T21:17:22;11.43;;;8.83;;
2854;SDS011;1435;49.472;10.940;2024-01-06T21:22:23;12.03;;;9.00;;
2854;SDS011;1435;49.472;10.940;2024-01-06T21:27:25;9.07;;;8.17;;
2854;SDS011;1435;49.472;10.940;2024-01-06T21:32:28;12.83;;;9.83;;
2854;SDS011;1435;49.472;10.940;2024-01-06T21:37:31;11.30;;;9.23;;
2854;SDS011;1435;49.472;10.940;2024-01-06T21:42:33;9.27;;;8.30;;
2854;SDS011;1435;49.472;10.940;2024-01-06T21:47:37;11.93;;;9.30;;
2854;SDS011;1435;49.472;10.940;2024-01-06T21:52:38;11.90;;;8.57;;
2854;SDS011;1435;49.472;10.940;2024-01-06T21:57:40;12.60;;;9.00;;
2854;SDS011;1435;49.472;10.940;2024-01-06T22:02:43;12.30;;;9.40;;
2854;SDS011;1435;49.472;10.940;2024-01-06T22:07:45;13.37;;;10.00;;
2854;SDS011;1435;49.472;10.940;2024-01-06T22:12:46;9.70;;;8.20;;
2854;SDS011;1435;49.472;10.940;2024-01-06T22:17:49;9.90;;;8.07;;
2854;SDS011;1435;49.472;10.940;2024-01-06T22:22:52;8.80;;;8.00;;
2854;SDS011;1435;49.472;10.940;2024-01-06T22:27:54;8.77;;;7.67;;
2854;SDS011;1435;49.472;10.940;2024-01-06T22:32:58;10.70;;;8.20;;
2854;SDS011;1435;49.472;10.940;2024-01-06T22:38:01;10.57;;;7.30;;
2854;SDS011;1435;49.472;10.940;2024-01-06T22:43:02;11.63;;;7.67;;
2854;SDS011;1435;49.472;10.940;2024-01-06T22:48:06;8.97;;;8.07;;
2854;SDS011;1435;49.472;10.940;2024-01-06T22:53:08;8.70;;;7.57;;
2854;SDS011;1435;49.472;10.940;2024-01-06T22:58:10;9.33;;;7.73;;
2854;SDS011;1435;49.472;10.940;2024-01-06T23:03:13;10.03;;;7.97;;
2854;SDS011;1435;49.472;10.940;2024-01-06T23:08:15;10.97;;;8.73;;
2854;SDS011;1435;49.472;10.940;2024-01-06T23:13:16;9.07;;;8.17;;
2854;SDS011;1435;49.472;10.940;2024-01-06T23:18:21;9.77;;;7.87;;
2854;SDS011;1435;49.472;10.940;2024-01-06T23:23:23;9.03;;;8.13;;
2854;SDS011;1435;49.472;10.940;2024-01-06T23:28:25;11.70;;;8.20;;
2854;SDS011;1435;49.472;10.940;2024-01-06T23:33:28;10.00;;;7.20;;
2854;SDS011;1435;49.472;10.940;2024-01-06T23:38:32;10.20;;;7.27;;
2854;SDS011;1435;49.472;10.940;2024-01-06T23:43:33;9.70;;;7.70;;
2854;SDS011;1435;49.472;10.940;2024-01-06T23:48:36;10.23;;;7.67;;
2854;SDS011;1435;49.472;10.940;2024-01-06T23:53:38;8.60;;;7.43;;
2854;SDS011;1435;49.472;10.940;2024-01-06T23:58:40;9.30;;;7.33;;
